createdAt,value
2019-05-23T00:02:28.408Z,15.97
2019-05-23T00:04:59.391Z,9.97
2019-05-23T00:07:28.972Z,8.33
2019-05-23T00:09:59.724Z,11.57
2019-05-23T00:12:45.375Z,8.77
2019-05-23T00:15:18.955Z,11.73
2019-05-23T00:17:48.846Z,7.23
2019-05-23T00:20:18.950Z,7.80
2019-05-23T00:22:48.001Z,10.47
2019-05-23T00:25:17.683Z,13.40
2019-05-23T00:27:47.669Z,13.83
2019-05-23T00:30:34.581Z,12.27
2019-05-23T00:33:05.393Z,11.77
2019-05-23T00:35:34.189Z,17.47
2019-05-23T00:38:04.495Z,13.60
2019-05-23T00:40:33.930Z,15.00
2019-05-23T00:43:04.145Z,23.63
2019-05-23T00:45:33.580Z,19.60
2019-05-23T00:48:03.214Z,24.33
2019-05-23T00:50:33.385Z,12.37
2019-05-23T00:53:02.127Z,12.83
2019-05-23T00:55:31.358Z,13.00
2019-05-23T00:58:01.689Z,22.57
2019-05-23T01:00:31.671Z,23.83
2019-05-23T01:03:00.597Z,12.50
2019-05-23T01:05:30.304Z,15.77
2019-05-23T01:08:00.054Z,9.80
2019-05-23T01:10:29.444Z,9.77
2019-05-23T01:12:58.099Z,13.17
2019-05-23T01:15:27.429Z,19.60
2019-05-23T01:17:56.770Z,21.70
2019-05-23T01:20:36.175Z,15.47
2019-05-23T01:23:06.870Z,19.40
2019-05-23T01:25:35.833Z,28.07
2019-05-23T01:28:04.742Z,62.47
2019-05-23T01:30:35.741Z,29.63
2019-05-23T01:33:04.843Z,15.47
2019-05-23T01:35:35.355Z,11.70
2019-05-23T01:38:05.600Z,9.60
2019-05-23T01:40:36.364Z,10.60
2019-05-23T01:43:05.445Z,34.70
2019-05-23T01:45:34.756Z,13.80
2019-05-23T01:48:04.253Z,13.43
2019-05-23T01:50:33.769Z,10.47
2019-05-23T01:53:03.109Z,30.63
2019-05-23T01:55:32.407Z,28.50
2019-05-23T01:58:01.300Z,12.30
2019-05-23T02:00:31.655Z,11.47
2019-05-23T02:03:01.071Z,15.53
2019-05-23T02:05:30.276Z,22.00
2019-05-23T02:07:59.344Z,32.90
2019-05-23T02:10:28.856Z,18.73
2019-05-23T02:12:58.100Z,19.40
2019-05-23T02:15:27.345Z,29.70
2019-05-23T02:17:57.186Z,31.97
2019-05-23T02:20:27.447Z,18.90
2019-05-23T02:22:59.067Z,19.47
2019-05-23T02:25:30.009Z,11.17
2019-05-23T02:27:59.835Z,19.47
2019-05-23T02:30:34.547Z,39.20
2019-05-23T02:33:00.386Z,25.40
2019-05-23T02:35:29.453Z,13.10
2019-05-23T02:38:12.761Z,16.57
2019-05-23T02:40:44.051Z,24.20
2019-05-23T02:43:17.593Z,25.90
2019-05-23T02:45:50.458Z,22.90
2019-05-23T02:48:35.858Z,28.60
2019-05-23T02:51:11.036Z,15.20
2019-05-23T02:53:41.271Z,18.87
2019-05-23T02:56:13.713Z,25.43
2019-05-23T02:59:08.125Z,15.70
2019-05-23T03:01:44.502Z,9.67
2019-05-23T03:04:22.395Z,18.13
2019-05-23T03:06:51.601Z,17.00
2019-05-23T03:09:24.095Z,15.50
2019-05-23T03:11:57.556Z,11.17
2019-05-23T03:14:27.215Z,9.40
2019-05-23T03:16:58.981Z,31.90
2019-05-23T03:19:37.064Z,10.03
2019-05-23T03:22:31.208Z,19.10
2019-05-23T03:25:04.768Z,13.40
2019-05-23T03:27:40.109Z,13.43
2019-05-23T03:30:16.212Z,21.07
2019-05-23T03:32:46.977Z,21.40
2019-05-23T03:35:23.586Z,17.93
2019-05-23T03:37:54.000Z,40.77
2019-05-23T03:40:23.355Z,30.90
2019-05-23T03:42:52.700Z,30.60
2019-05-23T03:45:23.195Z,22.90
2019-05-23T03:47:53.415Z,29.70
2019-05-23T03:50:23.032Z,20.30
2019-05-23T03:52:51.902Z,36.87
2019-05-23T03:55:23.588Z,35.97
2019-05-23T03:57:53.417Z,29.77
2019-05-23T04:00:23.968Z,14.90
2019-05-23T04:02:53.030Z,29.93
2019-05-23T04:05:22.351Z,27.67
2019-05-23T04:07:51.815Z,22.80
2019-05-23T04:10:21.318Z,19.33
2019-05-23T04:12:50.654Z,19.73
2019-05-23T04:15:20.435Z,12.50
2019-05-23T04:17:49.456Z,11.03
2019-05-23T04:20:22.342Z,14.60
2019-05-23T04:22:51.282Z,13.40
2019-05-23T04:25:20.253Z,10.17
2019-05-23T04:27:52.581Z,13.47
2019-05-23T04:30:21.601Z,10.50
2019-05-23T04:32:50.273Z,9.67
2019-05-23T04:35:19.393Z,10.47
2019-05-23T04:37:49.646Z,13.67
2019-05-23T04:40:19.843Z,11.47
2019-05-23T04:42:48.402Z,11.07
2019-05-23T04:45:17.368Z,10.77
2019-05-23T04:47:46.886Z,9.90
2019-05-23T04:50:19.493Z,11.03
2019-05-23T04:52:51.503Z,9.63
2019-05-23T04:55:21.324Z,9.93
2019-05-23T04:57:50.163Z,14.47
2019-05-23T05:00:20.867Z,18.03
2019-05-23T05:02:50.003Z,9.73
2019-05-23T05:05:19.078Z,9.03
2019-05-23T05:07:48.266Z,15.93
2019-05-23T05:10:20.908Z,12.57
2019-05-23T05:12:49.808Z,13.40
2019-05-23T05:15:18.770Z,13.67
2019-05-23T05:17:47.582Z,12.03
2019-05-23T05:20:16.863Z,10.93
2019-05-23T05:22:48.463Z,12.37
2019-05-23T05:25:17.719Z,10.40
2019-05-23T05:27:51.715Z,8.40
2019-05-23T05:30:33.213Z,9.63
2019-05-23T05:35:50.443Z,10.23
2019-05-23T05:41:28.576Z,8.37
2019-05-23T05:43:57.289Z,9.10
2019-05-23T05:46:26.216Z,8.50
2019-05-23T05:49:10.227Z,8.93
2019-05-23T05:51:39.038Z,12.80
2019-05-23T05:54:09.797Z,15.27
2019-05-23T05:56:38.746Z,12.50
2019-05-23T05:59:07.757Z,11.77
2019-05-23T06:01:37.040Z,10.73
2019-05-23T06:04:05.982Z,14.20
2019-05-23T06:06:36.614Z,10.83
2019-05-23T06:09:09.205Z,12.13
2019-05-23T06:11:38.306Z,11.93
2019-05-23T06:14:08.408Z,11.13
2019-05-23T06:16:37.599Z,9.93
2019-05-23T06:19:29.819Z,11.97
2019-05-23T06:22:01.857Z,11.43
2019-05-23T06:32:54.906Z,20.85
2019-05-23T06:35:29.009Z,15.58
2019-05-23T06:37:55.482Z,19.55
2019-05-23T06:40:26.645Z,18.37
2019-05-23T06:42:55.870Z,16.00
2019-05-23T06:45:25.518Z,16.62
2019-05-23T06:47:56.982Z,16.82
2019-05-23T06:50:26.049Z,16.90
2019-05-23T06:52:54.967Z,19.00
2019-05-23T06:55:23.956Z,16.00
2019-05-23T06:57:52.813Z,14.93
2019-05-23T07:00:23.582Z,13.03
2019-05-23T07:02:52.741Z,12.53
2019-05-23T07:05:25.311Z,13.13
2019-05-23T07:07:54.870Z,17.98
2019-05-23T07:10:24.926Z,16.97
2019-05-23T07:12:53.870Z,14.80
2019-05-23T07:15:24.420Z,15.18
2019-05-23T07:17:53.824Z,12.18
2019-05-23T07:20:22.922Z,11.18
2019-05-23T07:22:51.911Z,11.25
2019-05-23T07:25:21.564Z,11.33
2019-05-23T07:27:51.490Z,6.75
2019-05-23T07:30:23.272Z,8.68
2019-05-23T07:32:52.479Z,9.25
2019-05-23T07:35:21.472Z,9.25
2019-05-23T07:37:49.995Z,7.65
2019-05-23T07:40:19.266Z,8.20
2019-05-23T07:42:48.635Z,10.90
2019-05-23T07:45:19.102Z,9.35
2019-05-23T07:47:47.698Z,8.93
2019-05-23T07:50:16.749Z,8.38
2019-05-23T07:52:45.686Z,13.45
2019-05-23T07:55:19.412Z,10.43
2019-05-23T07:57:48.283Z,8.68
2019-05-23T08:00:19.960Z,13.93
2019-05-23T08:02:51.606Z,9.70
2019-05-23T08:05:22.096Z,8.28
2019-05-23T08:07:50.783Z,9.18
2019-05-23T08:10:33.217Z,7.75
2019-05-23T08:15:44.191Z,6.70
2019-05-23T08:18:13.356Z,6.55
2019-05-23T08:20:42.696Z,7.62
2019-05-23T08:23:14.376Z,9.05
2019-05-23T08:25:43.235Z,6.22
2019-05-23T08:28:12.930Z,9.20
2019-05-23T08:30:42.484Z,8.58
2019-05-23T08:33:12.819Z,10.65
2019-05-23T08:35:41.870Z,9.40
2019-05-23T08:38:10.821Z,8.18
2019-05-23T08:40:39.882Z,6.37
2019-05-23T08:43:08.812Z,8.58
2019-05-23T08:45:37.782Z,7.62
2019-05-23T08:48:06.431Z,7.75
2019-05-23T08:50:35.485Z,12.20
2019-05-23T08:53:11.339Z,8.55
2019-05-23T08:55:41.106Z,7.95
2019-05-23T08:58:12.326Z,9.95
2019-05-23T09:00:42.750Z,7.40
2019-05-23T09:03:12.779Z,7.55
2019-05-23T09:09:01.843Z,9.80
2019-05-23T09:11:31.374Z,7.92
2019-05-23T09:14:00.647Z,6.15
2019-05-23T09:21:47.802Z,11.05
2019-05-23T09:24:17.019Z,7.37
2019-05-23T09:26:46.421Z,6.67
2019-05-23T09:29:15.469Z,6.90
2019-05-23T09:31:44.178Z,7.92
2019-05-23T09:34:13.519Z,6.95
2019-05-23T09:36:42.736Z,6.25
2019-05-23T09:39:13.205Z,9.98
2019-05-23T09:41:41.945Z,7.17
2019-05-23T09:44:10.931Z,8.20
2019-05-23T09:46:39.883Z,7.37
2019-05-23T09:49:11.240Z,8.10
2019-05-23T09:51:39.295Z,7.90
2019-05-23T09:54:22.944Z,8.80
2019-05-23T09:56:51.974Z,6.53
2019-05-23T09:59:20.875Z,6.40
2019-05-23T10:01:49.777Z,7.58
2019-05-23T10:04:18.354Z,7.95
2019-05-23T10:06:47.112Z,6.87
2019-05-23T10:09:15.813Z,7.10
2019-05-23T10:11:44.427Z,8.78
2019-05-23T10:14:14.835Z,9.73
2019-05-23T10:16:43.591Z,8.23
2019-05-23T10:19:12.105Z,11.22
2019-05-23T10:21:40.837Z,16.40
2019-05-23T10:24:09.834Z,9.35
2019-05-23T10:26:38.562Z,6.70
2019-05-23T10:29:07.273Z,7.40
2019-05-23T11:13:23.442Z,5.00
2019-05-23T11:15:53.556Z,4.72
2019-05-23T11:18:22.239Z,8.68
2019-05-23T11:20:51.197Z,8.48
2019-05-23T11:23:21.551Z,7.95
2019-05-23T11:25:50.336Z,6.25
2019-05-23T11:28:18.871Z,6.62
2019-05-23T11:30:49.247Z,6.30
2019-05-23T11:33:18.074Z,5.28
2019-05-23T11:35:47.268Z,10.35
2019-05-23T11:38:15.760Z,9.10
2019-05-23T11:40:44.254Z,3.95
2019-05-23T11:43:13.111Z,5.70
2019-05-23T11:45:49.771Z,5.75
2019-05-23T11:48:18.769Z,7.95
2019-05-23T11:50:47.621Z,4.55
2019-05-23T11:53:16.265Z,5.10
2019-05-23T11:55:45.061Z,5.00
2019-05-23T11:58:13.994Z,7.90
2019-05-23T12:00:55.888Z,7.20
2019-05-23T12:03:24.655Z,4.80
2019-05-23T12:05:53.500Z,4.55
2019-05-23T12:08:22.976Z,5.97
2019-05-23T12:10:51.673Z,4.58
2019-05-23T12:13:20.512Z,6.90
2019-05-23T12:15:49.862Z,5.92
2019-05-23T12:18:18.589Z,5.58
2019-05-23T12:20:47.264Z,5.75
2019-05-23T12:23:15.976Z,4.20
2019-05-23T12:25:44.653Z,4.70
2019-05-23T12:28:13.757Z,3.62
2019-05-23T12:30:42.330Z,8.93
2019-05-23T12:33:11.031Z,3.92
2019-05-23T12:35:39.791Z,6.03
2019-05-23T12:38:08.518Z,6.92
2019-05-23T12:40:37.241Z,6.85
2019-05-23T12:43:05.927Z,6.08
2019-05-23T12:45:34.824Z,6.58
2019-05-23T12:48:17.232Z,6.85
2019-05-23T12:50:53.771Z,4.40
2019-05-23T12:53:21.081Z,4.45
2019-05-23T12:55:49.519Z,5.95
2019-05-23T12:58:18.872Z,5.92
2019-05-23T13:00:49.581Z,11.12
2019-05-23T13:03:18.162Z,6.85
2019-05-23T13:05:46.711Z,6.40
2019-05-23T13:08:15.634Z,8.60
2019-05-23T13:10:44.356Z,11.08
2019-05-23T13:13:13.146Z,5.95
2019-05-23T13:15:41.648Z,6.15
2019-05-23T13:18:10.406Z,6.25
2019-05-23T13:20:40.383Z,4.40
2019-05-23T13:23:13.393Z,4.92
2019-05-23T13:25:39.669Z,5.20
2019-05-23T13:28:08.447Z,5.62
2019-05-23T13:30:37.014Z,4.97
2019-05-23T13:33:05.790Z,6.00
2019-05-23T13:35:34.970Z,6.12
2019-05-23T13:38:03.742Z,4.72
2019-05-23T13:40:32.234Z,4.33
2019-05-23T13:43:00.766Z,6.92
2019-05-23T13:45:29.454Z,6.78
2019-05-23T13:47:58.211Z,5.85
2019-05-23T13:50:27.680Z,5.00
2019-05-23T13:52:56.617Z,5.65
2019-05-23T13:55:25.953Z,5.50
2019-05-23T13:57:54.689Z,6.87
2019-05-23T14:00:24.740Z,4.45
2019-05-23T14:02:53.897Z,5.35
2019-05-23T14:05:22.951Z,5.22
2019-05-23T14:07:51.792Z,5.05
2019-05-23T14:10:21.202Z,4.53
2019-05-23T14:12:50.054Z,3.77
2019-05-23T14:15:20.179Z,9.73
2019-05-23T14:17:49.342Z,3.67
2019-05-23T14:20:20.241Z,7.08
2019-05-23T14:22:59.531Z,5.87
2019-05-23T14:31:03.347Z,4.20
2019-05-23T14:36:32.631Z,4.40
2019-05-23T15:03:03.454Z,4.87
2019-05-23T15:05:32.204Z,4.90
2019-05-23T15:08:00.914Z,4.45
2019-05-23T15:10:29.901Z,3.95
2019-05-23T15:12:58.619Z,4.60
2019-05-23T15:15:27.307Z,3.98
2019-05-23T15:17:56.123Z,5.42
2019-05-23T15:20:24.975Z,3.75
2019-05-23T15:22:53.390Z,5.62
2019-05-23T15:25:22.836Z,7.33
2019-05-23T15:27:51.553Z,4.83
2019-05-23T15:30:20.318Z,3.80
2019-05-23T15:32:49.092Z,6.83
2019-05-23T15:35:18.182Z,4.70
2019-05-23T15:37:46.745Z,3.70
2019-05-23T15:40:15.702Z,6.40
2019-05-23T15:42:44.474Z,4.47
2019-05-23T15:45:13.528Z,6.62
2019-05-23T15:47:42.298Z,3.17
2019-05-23T15:50:13.577Z,4.55
2019-05-23T15:52:46.750Z,5.80
2019-05-23T15:55:29.352Z,4.47
2019-05-23T15:58:08.728Z,12.30
2019-05-23T16:00:48.192Z,4.05
2019-05-23T16:03:34.607Z,4.17
2019-05-23T16:06:04.701Z,5.67
2019-05-23T16:08:33.504Z,7.08
2019-05-23T16:11:02.322Z,6.67
2019-05-23T16:13:30.755Z,4.53
2019-05-23T16:15:59.589Z,5.97
2019-05-23T16:18:28.321Z,3.65
2019-05-23T16:20:57.028Z,6.87
2019-05-23T16:23:25.941Z,3.08
2019-05-23T16:25:55.073Z,5.90
2019-05-23T16:28:23.942Z,4.05
2019-05-23T16:30:52.919Z,7.35
2019-05-23T16:33:21.701Z,6.20
2019-05-23T16:39:12.068Z,7.30
2019-05-23T16:44:45.880Z,3.52
2019-05-23T16:58:28.732Z,6.17
2019-05-23T17:04:10.400Z,6.35
2019-05-23T17:06:44.397Z,4.78
2019-05-23T17:10:06.956Z,4.60
2019-05-23T17:29:52.889Z,7.65
2019-05-23T17:32:23.420Z,6.22
2019-05-23T17:34:53.836Z,4.60
2019-05-23T17:37:23.628Z,5.67
2019-05-23T17:39:53.779Z,6.25
2019-05-23T17:42:22.762Z,5.28
2019-05-23T17:44:51.491Z,5.53
2019-05-23T17:47:19.986Z,6.75
2019-05-23T17:49:48.851Z,5.97
2019-05-23T17:52:18.891Z,5.05
2019-05-23T17:54:48.675Z,6.37
2019-05-23T17:57:17.175Z,9.70
2019-05-23T17:59:45.907Z,6.17
2019-05-23T18:02:16.092Z,5.58
2019-05-23T18:04:45.123Z,5.92
2019-05-23T18:07:14.858Z,4.42
2019-05-23T18:09:43.343Z,4.67
2019-05-23T18:12:15.163Z,10.23
2019-05-23T18:14:43.603Z,17.57
2019-05-23T18:17:13.027Z,7.55
2019-05-23T18:19:42.257Z,4.08
2019-05-23T18:22:12.670Z,4.85
2019-05-23T18:24:41.421Z,5.35
2019-05-23T18:27:11.115Z,6.67
2019-05-23T18:29:39.934Z,5.90
2019-05-23T18:32:10.856Z,5.00
2019-05-23T18:34:39.693Z,4.80
2019-05-23T18:37:08.391Z,3.45
2019-05-23T18:39:37.251Z,4.97
2019-05-23T18:42:06.513Z,6.47
2019-05-23T18:47:50.263Z,5.03
2019-05-23T18:50:20.514Z,4.37
2019-05-23T18:55:35.249Z,10.35
2019-05-23T18:58:07.610Z,3.77
2019-05-23T19:00:59.462Z,2.77
2019-05-23T19:03:32.387Z,12.15
2019-05-23T19:06:03.032Z,4.83
2019-05-23T19:08:32.078Z,4.67
2019-05-23T19:11:01.631Z,5.03
2019-05-23T19:13:34.923Z,4.47
2019-05-23T19:16:04.861Z,7.63
2019-05-23T19:18:34.245Z,5.60
2019-05-23T19:21:04.557Z,3.23
2019-05-23T19:23:33.558Z,10.37
2019-05-23T19:26:02.354Z,4.67
2019-05-23T19:28:31.386Z,3.53
2019-05-23T19:31:01.249Z,3.40
2019-05-23T19:33:30.501Z,3.40
2019-05-23T19:35:59.494Z,5.67
2019-05-23T19:38:28.401Z,4.47
2019-05-23T19:40:57.407Z,3.93
2019-05-23T19:43:26.299Z,4.77
2019-05-23T19:45:55.088Z,11.57
2019-05-23T19:48:25.023Z,4.23
2019-05-23T19:50:54.988Z,6.67
2019-05-23T19:53:24.476Z,5.30
2019-05-23T19:58:47.265Z,4.03
2019-05-23T20:01:23.043Z,3.13
2019-05-23T20:03:54.278Z,7.87
2019-05-23T20:06:23.990Z,8.47
2019-05-23T20:08:56.000Z,6.07
2019-05-23T20:14:23.613Z,4.97
2019-05-23T20:19:55.735Z,5.20
2019-05-23T20:25:31.189Z,4.13
2019-05-23T20:28:09.855Z,4.10
2019-05-23T20:30:46.572Z,6.43
2019-05-23T20:33:16.594Z,3.47
2019-05-23T20:35:49.032Z,6.90
2019-05-23T20:38:27.285Z,6.03
2019-05-23T20:44:02.183Z,4.60
2019-05-23T20:52:13.498Z,5.87
2019-05-23T20:54:43.205Z,5.97
2019-05-23T20:57:13.175Z,6.17
2019-05-23T20:59:42.120Z,7.43
2019-05-23T21:02:11.249Z,4.60
2019-05-23T21:04:40.320Z,7.13
2019-05-23T21:07:10.266Z,4.93
2019-05-23T21:09:39.315Z,3.80
2019-05-23T21:12:09.452Z,3.90
2019-05-23T21:14:38.877Z,4.57
2019-05-23T21:17:07.906Z,3.60
2019-05-23T21:19:37.132Z,3.90
2019-05-23T21:22:06.283Z,3.77
2019-05-23T21:24:35.528Z,6.00
2019-05-23T21:27:04.574Z,4.60
2019-05-23T21:29:33.595Z,5.17
2019-05-23T21:32:02.629Z,7.30
2019-05-23T21:34:31.575Z,5.70
2019-05-23T21:37:00.734Z,8.77
2019-05-23T21:39:29.704Z,6.00
2019-05-23T21:41:58.589Z,5.83
2019-05-23T21:44:27.487Z,5.30
2019-05-23T21:46:56.584Z,4.60
2019-05-23T21:49:25.236Z,5.07
2019-05-23T21:51:54.376Z,5.40
2019-05-23T21:54:23.275Z,5.23
2019-05-23T21:56:52.240Z,5.43
2019-05-23T21:59:21.382Z,6.00
2019-05-23T22:02:01.197Z,4.30
2019-05-23T22:04:32.360Z,4.80
2019-05-23T22:07:01.706Z,4.30
2019-05-23T22:09:31.762Z,5.37
2019-05-23T22:12:01.316Z,7.13
2019-05-23T22:14:30.360Z,6.93
2019-05-23T22:16:59.119Z,6.30
2019-05-23T22:19:28.249Z,5.70
2019-05-23T22:21:57.493Z,11.13
2019-05-23T22:24:26.616Z,5.23
2019-05-23T22:26:55.615Z,5.47
2019-05-23T22:29:25.107Z,6.23
2019-05-23T22:31:56.457Z,5.83
2019-05-23T22:34:26.594Z,5.63
2019-05-23T22:36:55.550Z,7.30
2019-05-23T22:39:24.521Z,4.53
2019-05-23T22:41:53.637Z,6.20
2019-05-23T22:44:22.663Z,13.40
2019-05-23T22:46:51.736Z,7.57
2019-05-23T22:49:20.788Z,4.93
2019-05-23T22:51:49.601Z,7.53
2019-05-23T22:54:18.624Z,7.90
2019-05-23T22:56:47.576Z,6.70
2019-05-23T22:59:16.493Z,6.83
2019-05-23T23:01:45.546Z,10.73
2019-05-23T23:04:14.493Z,7.23
2019-05-23T23:06:43.600Z,5.23
2019-05-23T23:09:12.712Z,5.90
2019-05-23T23:11:41.597Z,7.57
2019-05-23T23:14:10.739Z,7.80
2019-05-23T23:16:39.750Z,7.20
2019-05-23T23:19:08.522Z,9.60
2019-05-23T23:21:37.598Z,12.27
2019-05-23T23:24:06.624Z,5.83
2019-05-23T23:26:35.474Z,4.93
2019-05-23T23:29:05.243Z,5.63
2019-05-23T23:31:34.276Z,8.27
2019-05-23T23:34:03.168Z,7.53
2019-05-23T23:36:32.025Z,5.73
2019-05-23T23:39:01.108Z,7.43
2019-05-23T23:41:29.869Z,6.03
2019-05-23T23:44:00.105Z,9.47
2019-05-23T23:46:46.555Z,8.00
2019-05-23T23:49:32.955Z,9.37
2019-05-23T23:52:19.538Z,7.30
2019-05-23T23:55:06.192Z,6.80
2019-05-23T23:57:52.851Z,6.33
